Time;durP1;ratioP1;P1;durP2;ratioP2;P2;SDS_P1;SDS_P2;PMS_P1;PMS_P2;Temp;Humidity;BMP_temperature;BMP_pressure;BME280_temperature;BME280_humidity;BME280_pressure;Samples;Min_cycle;Max_cycle;Signal;HPM_P1;HPM_P2
2023/09/22 00:02:10;;;;;;;31.60;26.38;;;14.80;99.90;;;;;;5126282;27;20398;-64
2023/09/22 00:04:36;;;;;;;34.35;27.50;;;15.00;99.90;;;;;;5126390;27;20401;-64
2023/09/22 00:07:02;;;;;;;28.98;16.38;;;15.10;99.90;;;;;;5125788;27;20693;-62
2023/09/22 00:09:27;;;;;;;29.85;16.83;;;14.90;99.90;;;;;;5126594;27;20035;-61
2023/09/22 00:11:53;;;;;;;29.25;17.73;;;14.70;99.90;;;;;;5125689;27;20031;-61
2023/09/22 00:14:19;;;;;;;32.15;25.88;;;14.90;99.90;;;;;;5126288;27;20130;-61
2023/09/22 00:16:45;;;;;;;33.10;17.73;;;15.10;99.90;;;;;;5107042;27;20031;-62
2023/09/22 00:19:10;;;;;;;31.77;25.88;;;14.70;99.90;;;;;;5126049;27;20027;-60
2023/09/22 00:21:36;;;;;;;30.08;25.13;;;14.70;99.90;;;;;;5108668;27;20038;-62
2023/09/22 00:24:02;;;;;;;30.65;25.83;;;14.90;99.90;;;;;;5125448;27;20050;-61
2023/09/22 00:26:28;;;;;;;31.83;25.52;;;14.80;99.90;;;;;;5125952;27;20072;-62
2023/09/22 00:28:54;;;;;;;30.88;25.70;;;14.80;99.90;;;;;;5125674;27;20038;-63
2023/09/22 00:31:20;;;;;;;31.17;25.98;;;14.80;99.90;;;;;;5109237;27;20474;-63
2023/09/22 00:33:45;;;;;;;29.88;25.73;;;14.80;99.90;;;;;;5106681;27;20091;-65
2023/09/22 00:36:14;;;;;;;33.05;25.95;;;15.10;99.90;;;;;;5106295;27;20046;-63
2023/09/22 00:38:40;;;;;;;32.60;26.48;;;14.80;99.90;;;;;;5124998;27;20035;-63
2023/09/22 00:41:06;;;;;;;32.10;26.05;;;15.20;99.90;;;;;;5125033;27;20038;-62
2023/09/22 00:43:31;;;;;;;30.27;25.38;;;15.10;99.90;;;;;;5125814;27;20378;-61
2023/09/22 00:45:57;;;;;;;30.05;26.08;;;15.10;99.90;;;;;;5106616;27;20039;-62
2023/09/22 00:48:29;;;;;;;30.67;27.10;;;15.10;99.90;;;;;;5125420;27;20117;-61
2023/09/22 00:50:56;;;;;;;31.52;26.88;;;14.80;99.90;;;;;;5124616;27;20035;-62
2023/09/22 00:53:26;;;;;;;33.13;27.30;;;14.80;99.90;;;;;;5124700;27;20470;-60
2023/09/22 00:55:53;;;;;;;31.13;25.88;;;14.70;99.90;;;;;;5123450;27;20038;-61
2023/09/22 00:58:19;;;;;;;32.15;26.70;;;15.10;99.90;;;;;;5105233;27;20027;-64
2023/09/22 01:00:49;;;;;;;31.13;26.67;;;15.10;99.90;;;;;;5106845;27;20488;-62
2023/09/22 01:03:16;;;;;;;34.50;28.23;;;15.00;99.90;;;;;;5124902;27;20045;-63
2023/09/22 01:05:43;;;;;;;32.47;18.13;;;14.80;99.90;;;;;;5124892;27;20046;-63
2023/09/22 01:08:08;;;;;;;33.17;27.75;;;14.70;99.90;;;;;;5124075;27;20063;-61
2023/09/22 01:10:38;;;;;;;34.92;28.00;;;14.70;99.90;;;;;;5124615;27;20122;-61
2023/09/22 01:13:05;;;;;;;29.67;25.27;;;15.00;99.90;;;;;;5124663;27;20114;-60
2023/09/22 01:15:33;;;;;;;30.67;26.05;;;14.70;99.90;;;;;;5124595;27;20035;-61
2023/09/22 01:17:59;;;;;;;28.27;24.38;;;14.70;99.90;;;;;;5124339;27;20034;-63
2023/09/22 01:20:25;;;;;;;28.85;24.58;;;14.60;99.90;;;;;;5106288;27;20035;-62
2023/09/22 01:22:51;;;;;;;32.60;24.83;;;14.80;99.90;;;;;;5124653;27;20572;-63
2023/09/22 01:25:17;;;;;;;26.45;22.60;;;14.60;99.90;;;;;;5124666;27;20087;-62
2023/09/22 01:27:43;;;;;;;24.15;21.02;;;14.60;99.90;;;;;;5124929;27;20043;-63
2023/09/22 01:30:09;;;;;;;21.95;19.45;;;14.80;99.90;;;;;;5124969;27;20038;-63
2023/09/22 01:32:37;;;;;;;23.77;20.20;;;14.70;99.90;;;;;;5105866;27;20051;-62
2023/09/22 01:35:04;;;;;;;22.35;19.70;;;14.50;99.90;;;;;;5124612;27;20035;-62
2023/09/22 01:37:35;;;;;;;22.55;18.08;;;14.30;99.90;;;;;;5123126;27;20047;-64
2023/09/22 01:40:00;;;;;;;21.48;18.73;;;14.30;99.90;;;;;;5124333;27;20114;-61
2023/09/22 01:42:26;;;;;;;24.08;18.58;;;14.50;99.90;;;;;;5123988;27;20035;-61
2023/09/22 01:44:52;;;;;;;22.52;18.63;;;14.20;99.90;;;;;;5124620;27;20034;-63
2023/09/22 01:47:18;;;;;;;23.20;19.00;;;14.40;99.90;;;;;;5124407;27;20042;-63
2023/09/22 01:49:43;;;;;;;23.75;19.63;;;14.40;99.90;;;;;;5124310;27;20035;-64
2023/09/22 01:52:09;;;;;;;28.13;20.65;;;14.40;99.90;;;;;;5124196;27;20482;-63
2023/09/22 01:54:35;;;;;;;26.83;20.63;;;14.40;99.90;;;;;;5123586;27;20035;-59
2023/09/22 01:57:00;;;;;;;29.90;21.75;;;14.20;99.90;;;;;;5123955;27;20494;-59
2023/09/22 01:59:26;;;;;;;27.60;21.42;;;14.40;99.90;;;;;;5123694;27;20039;-63
2023/09/22 02:01:52;;;;;;;26.10;20.27;;;14.20;99.90;;;;;;5105646;28;20374;-62
2023/09/22 02:04:17;;;;;;;27.60;21.58;;;14.40;99.90;;;;;;5124555;28;20023;-62
2023/09/22 02:06:44;;;;;;;29.13;21.65;;;14.10;99.90;;;;;;5104863;28;20046;-63
2023/09/22 02:09:10;;;;;;;34.20;23.08;;;14.30;99.90;;;;;;5122529;28;20059;-62
2023/09/22 02:11:36;;;;;;;32.35;23.17;;;14.00;99.90;;;;;;5124379;28;20055;-61
2023/09/22 02:14:02;;;;;;;31.38;23.05;;;14.00;99.90;;;;;;5124369;28;20486;-62
2023/09/22 02:16:28;;;;;;;28.30;21.98;;;14.30;99.90;;;;;;5124115;28;20154;-62
2023/09/22 02:18:53;;;;;;;32.60;23.05;;;14.30;99.90;;;;;;5122781;27;20359;-64
2023/09/22 02:21:19;;;;;;;31.08;23.33;;;14.00;99.90;;;;;;5122877;28;20035;-61
2023/09/22 02:23:44;;;;;;;32.25;24.20;;;14.00;99.90;;;;;;5122781;28;20551;-61
2023/09/22 02:26:10;;;;;;;29.02;21.25;;;14.20;99.90;;;;;;5122629;27;20039;-60
2023/09/22 02:28:36;;;;;;;33.58;23.90;;;14.20;99.90;;;;;;5122922;27;20042;-60
2023/09/22 02:31:02;;;;;;;31.77;22.77;;;14.00;99.90;;;;;;5104543;28;20035;-63
2023/09/22 02:33:29;;;;;;;31.52;21.65;;;14.20;99.90;;;;;;5123139;28;20039;-60
2023/09/22 02:35:54;;;;;;;25.55;18.90;;;14.10;99.90;;;;;;5105182;28;20043;-61
2023/09/22 02:38:20;;;;;;;22.70;17.02;;;14.10;99.90;;;;;;5123654;28;20087;-63
2023/09/22 02:40:46;;;;;;;22.52;15.73;;;14.20;99.90;;;;;;5123909;28;20035;-60
2023/09/22 02:43:11;;;;;;;17.65;12.23;;;13.90;99.90;;;;;;5123623;28;20043;-61
2023/09/22 02:45:39;;;;;;;14.73;10.57;;;13.90;99.90;;;;;;5123941;28;20039;-65
2023/09/22 02:48:06;;;;;;;15.00;10.25;;;14.10;99.90;;;;;;5122815;28;20462;-62
2023/09/22 02:50:31;;;;;;;15.40;10.43;;;14.10;99.90;;;;;;5123305;28;20039;-63
2023/09/22 02:52:57;;;;;;;17.92;11.98;;;14.00;99.90;;;;;;5123335;28;20050;-62
2023/09/22 02:55:23;;;;;;;20.60;14.10;;;13.90;99.90;;;;;;5104685;28;20023;-62
2023/09/22 02:57:48;;;;;;;24.83;15.65;;;14.00;99.90;;;;;;5123682;28;20494;-60
2023/09/22 03:00:17;;;;;;;23.27;15.63;;;13.70;99.90;;;;;;5104847;28;20494;-61
2023/09/22 03:02:43;;;;;;;20.27;15.82;;;13.90;99.90;;;;;;5123609;28;20051;-60
2023/09/22 03:05:10;;;;;;;28.10;16.67;;;14.00;99.90;;;;;;5122754;28;20501;-61
2023/09/22 03:07:36;;;;;;;25.42;16.58;;;13.60;99.90;;;;;;5123143;28;20584;-61
2023/09/22 03:10:06;;;;;;;25.08;16.95;;;13.90;99.90;;;;;;5122317;28;20142;-61
2023/09/22 03:12:33;;;;;;;29.98;19.70;;;13.70;99.90;;;;;;5104215;28;20078;-61
2023/09/22 03:14:59;;;;;;;30.90;20.92;;;13.70;99.90;;;;;;5123478;28;20044;-64
2023/09/22 03:17:25;;;;;;;33.67;22.17;;;13.70;99.90;;;;;;5123220;27;20028;-60
2023/09/22 03:19:50;;;;;;;37.28;23.77;;;13.70;99.90;;;;;;5126258;27;20031;-61
2023/09/22 03:22:16;;;;;;;35.72;23.98;;;13.70;99.90;;;;;;5108395;27;20035;-62
2023/09/22 03:24:41;;;;;;;38.33;25.55;;;13.70;99.90;;;;;;5126495;27;20043;-61
2023/09/22 03:27:07;;;;;;;41.20;26.90;;;13.80;99.90;;;;;;5127044;27;20035;-62
2023/09/22 03:29:33;;;;;;;44.65;27.63;;;13.80;99.90;;;;;;5127192;27;20031;-62
2023/09/22 03:31:58;;;;;;;40.83;15.98;;;13.90;99.90;;;;;;5107530;27;20449;-62
2023/09/22 03:34:24;;;;;;;42.40;29.60;;;13.70;99.90;;;;;;5126497;27;20035;-62
2023/09/22 03:36:50;;;;;;;43.00;30.63;;;13.70;99.90;;;;;;5126585;27;20096;-62
2023/09/22 03:39:18;;;;;;;41.35;16.85;;;13.80;99.90;;;;;;5126558;27;20454;-61
2023/09/22 03:41:44;;;;;;;38.10;28.75;;;13.90;99.90;;;;;;5125640;27;20163;-61
2023/09/22 03:44:10;;;;;;;41.00;29.70;;;13.90;99.90;;;;;;5108090;27;20051;-61
2023/09/22 03:46:36;;;;;;;41.92;30.35;;;13.90;99.90;;;;;;5126796;27;20050;-61
2023/09/22 03:49:03;;;;;;;41.92;30.38;;;13.80;99.90;;;;;;5125631;27;20053;-64
2023/09/22 03:51:29;;;;;;;36.40;16.50;;;13.90;99.90;;;;;;5090067;27;20042;-62
2023/09/22 03:53:54;;;;;;;42.40;30.10;;;13.80;99.90;;;;;;5125763;27;20039;-60
2023/09/22 03:56:20;;;;;;;42.83;30.92;;;13.60;99.90;;;;;;5125511;27;20031;-62
2023/09/22 03:58:45;;;;;;;41.00;31.00;;;13.60;99.90;;;;;;5125876;27;20126;-62
2023/09/22 04:01:11;;;;;;;42.85;31.15;;;13.50;99.90;;;;;;5107349;27;20061;-62
2023/09/22 04:03:37;;;;;;;46.85;32.63;;;13.50;99.90;;;;;;5126256;27;20095;-62
2023/09/22 04:06:04;;;;;;;45.67;32.03;;;13.80;99.90;;;;;;5126633;27;20035;-63
2023/09/22 04:08:30;;;;;;;45.70;33.00;;;13.50;99.90;;;;;;5108470;27;20299;-61
2023/09/22 04:10:56;;;;;;;49.53;33.72;;;13.80;99.90;;;;;;5125630;27;20454;-64
2023/09/22 04:13:24;;;;;;;49.05;32.97;;;13.70;99.90;;;;;;5126487;27;20043;-61
2023/09/22 04:16:00;;;;;;;46.78;34.58;;;13.50;99.90;;;;;;5106218;27;20042;-62
2023/09/22 04:18:29;;;;;;;53.67;35.78;;;13.70;99.90;;;;;;5125946;27;20058;-64
2023/09/22 04:20:56;;;;;;;54.08;36.22;;;13.50;99.90;;;;;;5107156;27;20071;-62
2023/09/22 04:23:22;;;;;;;54.63;36.08;;;13.70;99.90;;;;;;5125587;27;20126;-63
2023/09/22 04:25:48;;;;;;;54.95;35.22;;;13.50;99.90;;;;;;5124966;27;20035;-63
2023/09/22 04:28:17;;;;;;;55.50;36.25;;;13.60;99.90;;;;;;5125215;27;20474;-65
2023/09/22 04:30:43;;;;;;;52.65;19.95;;;13.50;99.90;;;;;;5125707;27;20046;-62
2023/09/22 04:33:11;;;;;;;57.97;37.70;;;13.40;99.90;;;;;;5106586;27;20043;-62
2023/09/22 04:35:37;;;;;;;51.08;20.75;;;13.60;99.90;;;;;;5124925;27;20402;-63
2023/09/22 04:38:04;;;;;;;54.30;37.28;;;13.60;99.90;;;;;;5125752;27;20424;-64
2023/09/22 04:40:36;;;;;;;57.95;39.53;;;13.60;99.90;;;;;;5125162;27;20052;-63
2023/09/22 04:43:05;;;;;;;47.15;19.88;;;13.50;99.90;;;;;;5125000;27;20039;-63
2023/09/22 04:45:30;;;;;;;53.63;36.58;;;13.40;99.90;;;;;;5106302;27;20487;-61
2023/09/22 04:47:57;;;;;;;58.53;38.78;;;13.50;99.90;;;;;;5125529;27;20126;-61
2023/09/22 04:50:23;;;;;;;57.83;38.72;;;13.40;99.90;;;;;;5125304;27;20039;-62
2023/09/22 04:52:49;;;;;;;59.58;38.63;;;13.40;99.90;;;;;;5124895;27;20039;-64
2023/09/22 04:55:16;;;;;;;56.92;37.92;;;13.50;99.90;;;;;;5107349;27;20046;-64
2023/09/22 04:57:43;;;;;;;56.00;38.90;;;13.40;99.90;;;;;;5124655;27;20031;-60
2023/09/22 05:00:15;;;;;;;54.55;37.50;;;13.40;99.90;;;;;;5125061;27;20130;-61
2023/09/22 05:02:44;;;;;;;56.95;37.33;;;13.50;99.90;;;;;;5124500;27;20047;-63
2023/09/22 05:05:18;;;;;;;56.25;38.65;;;13.50;99.90;;;;;;5124683;27;20043;-63
2023/09/22 05:07:47;;;;;;;54.90;37.83;;;13.50;99.90;;;;;;5124687;27;20035;-60
2023/09/22 05:10:12;;;;;;;52.90;36.95;;;13.20;99.90;;;;;;5105969;27;20521;-62
2023/09/22 05:12:38;;;;;;;49.95;36.40;;;13.20;99.90;;;;;;5124703;27;20055;-62
2023/09/22 05:15:05;;;;;;;50.95;35.17;;;13.20;99.90;;;;;;5124682;27;20050;-64
2023/09/22 05:17:30;;;;;;;54.40;33.95;;;13.30;99.90;;;;;;5106164;27;20043;-63
2023/09/22 05:19:58;;;;;;;48.13;32.40;;;13.50;99.90;;;;;;5106542;27;20032;-61
2023/09/22 05:22:24;;;;;;;47.00;31.42;;;13.40;99.90;;;;;;5124135;27;20035;-61
2023/09/22 05:24:49;;;;;;;45.65;30.65;;;13.20;99.90;;;;;;5123645;27;20115;-62
2023/09/22 05:27:15;;;;;;;42.60;29.13;;;13.20;99.90;;;;;;5123542;27;20494;-63
2023/09/22 05:29:41;;;;;;;46.20;31.20;;;13.30;99.90;;;;;;5124555;27;20038;-62
2023/09/22 05:32:08;;;;;;;39.50;15.55;;;13.40;99.90;;;;;;5124333;27;20590;-60
2023/09/22 05:34:34;;;;;;;45.88;29.20;;;13.30;99.90;;;;;;5124438;27;20085;-62
2023/09/22 05:37:00;;;;;;;44.47;28.95;;;13.30;99.90;;;;;;5124912;27;20066;-63
2023/09/22 05:39:26;;;;;;;33.40;14.65;;;13.30;99.90;;;;;;5124003;27;20027;-61
2023/09/22 05:41:52;;;;;;;32.97;15.07;;;13.30;99.90;;;;;;5123462;27;20034;-62
2023/09/22 05:44:18;;;;;;;41.83;26.77;;;13.20;99.90;;;;;;5124281;27;20131;-63
2023/09/22 05:46:50;;;;;;;37.78;25.38;;;13.30;99.90;;;;;;5124276;27;20042;-61
2023/09/22 05:49:15;;;;;;;40.58;26.92;;;13.40;99.90;;;;;;5123765;27;20039;-61
2023/09/22 05:51:41;;;;;;;38.10;24.88;;;13.10;99.90;;;;;;5124218;27;20562;-64
2023/09/22 05:54:08;;;;;;;35.00;24.08;;;13.40;99.90;;;;;;5123566;27;20043;-64
2023/09/22 05:56:34;;;;;;;35.75;24.30;;;13.30;99.90;;;;;;5123548;27;20031;-62
2023/09/22 05:59:01;;;;;;;33.22;13.27;;;13.20;99.90;;;;;;5123788;27;20023;-63
2023/09/22 06:01:27;;;;;;;33.22;13.90;;;13.20;99.90;;;;;;5124417;27;20066;-62
2023/09/22 06:03:54;;;;;;;32.97;22.48;;;13.20;99.90;;;;;;5105201;28;20054;-62
2023/09/22 06:06:19;;;;;;;36.78;24.20;;;13.30;99.90;;;;;;5124463;28;20038;-61
2023/09/22 06:08:46;;;;;;;38.35;24.75;;;13.40;99.90;;;;;;5105868;28;20035;-62
2023/09/22 06:11:13;;;;;;;38.28;25.42;;;13.40;99.90;;;;;;5106540;28;20051;-60
2023/09/22 06:13:40;;;;;;;32.50;12.63;;;13.50;99.90;;;;;;5123851;28;20027;-64
2023/09/22 06:16:06;;;;;;;32.13;23.27;;;13.20;99.90;;;;;;5123830;28;20027;-63
2023/09/22 06:18:32;;;;;;;34.88;22.95;;;13.30;99.90;;;;;;5124277;28;20106;-61
2023/09/22 06:21:00;;;;;;;33.88;23.20;;;13.30;99.90;;;;;;5123950;28;20050;-61
2023/09/22 06:23:27;;;;;;;34.75;23.23;;;13.40;99.90;;;;;;5123340;28;20155;-62
2023/09/22 06:26:05;;;;;;;32.38;23.25;;;13.40;99.90;;;;;;5123865;28;20073;-61
2023/09/22 06:28:31;;;;;;;35.05;22.98;;;13.40;99.90;;;;;;5124008;28;20039;-64
2023/09/22 06:31:01;;;;;;;32.85;22.58;;;13.70;99.90;;;;;;5103914;28;20085;-65
2023/09/22 06:33:27;;;;;;;34.47;22.70;;;13.60;99.90;;;;;;5122488;27;20506;-63
2023/09/22 06:35:57;;;;;;;37.45;23.70;;;13.70;99.90;;;;;;5123218;27;20034;-61
2023/09/22 06:38:23;;;;;;;34.42;24.60;;;13.70;99.90;;;;;;5123065;28;20424;-63
2023/09/22 06:40:50;;;;;;;36.70;24.02;;;13.60;99.90;;;;;;5123215;28;20088;-63
2023/09/22 06:43:16;;;;;;;32.63;23.60;;;13.80;99.90;;;;;;5122894;28;20036;-62
2023/09/22 06:45:42;;;;;;;27.02;12.55;;;13.50;99.90;;;;;;5123710;28;20038;-61
2023/09/22 06:48:09;;;;;;;31.38;22.98;;;13.80;99.90;;;;;;5123756;28;20050;-61
2023/09/22 06:50:37;;;;;;;30.25;22.38;;;13.50;99.90;;;;;;5123528;28;20110;-63
2023/09/22 06:53:04;;;;;;;31.05;22.20;;;13.60;99.90;;;;;;5126164;27;20079;-60
2023/09/22 06:55:32;;;;;;;29.27;21.25;;;13.60;99.90;;;;;;5109653;27;20506;-64
2023/09/22 06:58:01;;;;;;;30.98;13.25;;;13.90;99.90;;;;;;5127516;27;20023;-59
2023/09/22 07:00:30;;;;;;;24.92;13.30;;;13.70;99.90;;;;;;5127302;27;20046;-62
2023/09/22 07:02:56;;;;;;;26.52;18.95;;;13.80;99.90;;;;;;5127571;27;20045;-61
2023/09/22 07:05:21;;;;;;;22.77;12.32;;;13.90;99.90;;;;;;5127138;27;20035;-62
2023/09/22 07:07:50;;;;;;;25.98;18.70;;;13.70;99.90;;;;;;5127281;27;20038;-62
2023/09/22 07:10:16;;;;;;;25.05;12.30;;;13.90;99.90;;;;;;5108368;27;20047;-64
2023/09/22 07:12:42;;;;;;;22.58;12.23;;;13.90;99.90;;;;;;5126976;27;20446;-63
2023/09/22 07:15:12;;;;;;;23.73;12.48;;;14.00;99.90;;;;;;5125917;27;20035;-62
2023/09/22 07:17:40;;;;;;;25.85;12.77;;;13.90;99.90;;;;;;5127275;27;20042;-63
2023/09/22 07:20:12;;;;;;;23.85;17.77;;;13.90;99.90;;;;;;5127149;27;20411;-63
2023/09/22 07:22:37;;;;;;;24.15;17.85;;;14.20;99.90;;;;;;5108733;27;20058;-61
2023/09/22 07:25:03;;;;;;;22.23;17.02;;;14.10;99.90;;;;;;5126656;27;20035;-62
2023/09/22 07:27:29;;;;;;;25.85;11.35;;;14.20;99.90;;;;;;5126518;27;20554;-62
2023/09/22 07:29:55;;;;;;;20.38;16.42;;;14.20;99.90;;;;;;5091600;27;20055;-66
2023/09/22 07:32:21;;;;;;;22.77;16.77;;;14.20;99.90;;;;;;5126312;27;20043;-64
2023/09/22 07:34:48;;;;;;;20.70;15.95;;;14.20;99.90;;;;;;5126963;27;20027;-61
2023/09/22 07:37:18;;;;;;;20.52;15.57;;;14.20;99.90;;;;;;5126242;27;20031;-62
2023/09/22 07:39:44;;;;;;;19.90;15.43;;;14.20;99.90;;;;;;5126636;27;20035;-60
2023/09/22 07:42:10;;;;;;;21.83;15.48;;;14.40;99.90;;;;;;5126716;27;20033;-62
2023/09/22 07:44:36;;;;;;;21.15;15.65;;;14.40;99.90;;;;;;5126551;27;20559;-62
2023/09/22 07:47:09;;;;;;;17.25;13.75;;;14.50;99.90;;;;;;5126638;27;20039;-63
2023/09/22 07:49:40;;;;;;;17.45;13.05;;;14.30;99.90;;;;;;5126037;27;20035;-62
2023/09/22 07:52:10;;;;;;;15.80;11.60;;;14.40;99.90;;;;;;5126127;27;20132;-64
2023/09/22 07:54:36;;;;;;;13.20;7.20;;;14.50;99.90;;;;;;5125227;27;20046;-61
2023/09/22 07:57:02;;;;;;;10.25;7.55;;;14.50;99.90;;;;;;5126581;27;20023;-61
2023/09/22 07:59:31;;;;;;;12.07;6.80;;;14.50;99.90;;;;;;5126116;27;20034;-65
2023/09/22 08:02:02;;;;;;;13.77;9.43;;;14.60;99.90;;;;;;5107257;27;20042;-64
2023/09/22 08:04:28;;;;;;;7.97;5.90;;;14.70;99.90;;;;;;5124676;27;20035;-62
2023/09/22 08:06:54;;;;;;;9.40;5.65;;;14.70;99.90;;;;;;5126820;27;20047;-61
2023/09/22 08:09:21;;;;;;;7.15;4.50;;;14.90;99.90;;;;;;5126203;27;20187;-63
2023/09/22 08:11:47;;;;;;;7.60;4.47;;;14.90;99.90;;;;;;5125774;27;20496;-61
2023/09/22 08:14:13;;;;;;;6.75;4.50;;;14.90;99.90;;;;;;5125922;27;20367;-61
2023/09/22 08:16:39;;;;;;;6.47;4.32;;;15.00;99.90;;;;;;5125865;27;20038;-65
2023/09/22 08:19:10;;;;;;;9.77;4.00;;;15.00;99.90;;;;;;5125717;27;20027;-62
2023/09/22 08:21:38;;;;;;;6.53;3.78;;;15.10;99.90;;;;;;5125595;27;20034;-61
2023/09/22 08:24:04;;;;;;;7.18;4.30;;;15.10;99.90;;;;;;5106630;27;20083;-63
2023/09/22 08:26:30;;;;;;;7.70;4.30;;;15.10;99.90;;;;;;5125270;27;20164;-63
2023/09/22 08:28:57;;;;;;;7.07;4.50;;;15.10;99.90;;;;;;5126311;27;20506;-63
2023/09/22 08:31:25;;;;;;;8.00;4.10;;;15.10;99.90;;;;;;5124911;27;20035;-62
2023/09/22 08:33:51;;;;;;;6.93;4.32;;;15.20;99.90;;;;;;5125108;27;20168;-63
2023/09/22 08:36:17;;;;;;;7.13;4.40;;;15.20;99.90;;;;;;5124776;27;20126;-62
2023/09/22 08:38:47;;;;;;;5.22;3.85;;;15.30;99.90;;;;;;5125661;27;20042;-62
2023/09/22 08:41:13;;;;;;;7.20;3.50;;;15.50;99.90;;;;;;5125942;27;20031;-63
2023/09/22 08:43:40;;;;;;;5.03;3.22;;;15.30;99.90;;;;;;5125550;27;20391;-63
2023/09/22 08:46:06;;;;;;;6.18;3.30;;;15.30;99.90;;;;;;5125025;27;20047;-62
2023/09/22 08:48:32;;;;;;;7.03;3.90;;;15.30;99.90;;;;;;5125876;27;20777;-62
2023/09/22 08:50:58;;;;;;;4.70;3.03;;;15.20;99.90;;;;;;5124992;27;20521;-61
2023/09/22 08:53:23;;;;;;;4.10;3.15;;;15.20;99.90;;;;;;5105430;27;20100;-62
2023/09/22 08:55:50;;;;;;;6.10;3.63;;;15.20;99.90;;;;;;5124562;27;20035;-62
2023/09/22 08:58:19;;;;;;;7.00;3.45;;;15.30;99.90;;;;;;5125098;27;20031;-65
2023/09/22 09:00:51;;;;;;;4.93;3.00;;;15.30;99.90;;;;;;5125044;27;20050;-60
2023/09/22 09:03:21;;;;;;;8.13;3.13;;;15.40;99.90;;;;;;5125167;27;20046;-63
2023/09/22 09:05:49;;;;;;;5.60;2.97;;;15.40;99.90;;;;;;5124535;27;20035;-62
2023/09/22 09:08:21;;;;;;;4.72;3.05;;;15.30;99.90;;;;;;5124573;27;20046;-60
2023/09/22 09:10:50;;;;;;;4.57;2.95;;;15.30;99.90;;;;;;5124487;27;20054;-64
2023/09/22 09:13:23;;;;;;;4.85;2.78;;;15.30;99.90;;;;;;5124949;27;20043;-63
2023/09/22 09:15:53;;;;;;;5.28;3.10;;;15.30;99.90;;;;;;5123375;27;20099;-64
2023/09/22 09:18:21;;;;;;;8.88;3.60;;;15.30;99.90;;;;;;5124701;27;20031;-62
2023/09/22 09:20:48;;;;;;;6.32;2.83;;;15.30;99.90;;;;;;5123849;27;20035;-62
2023/09/22 09:23:19;;;;;;;4.85;2.80;;;15.30;99.90;;;;;;5124666;27;20553;-63
2023/09/22 09:25:50;;;;;;;5.30;2.38;;;15.20;99.90;;;;;;5123827;27;20042;-62
2023/09/22 09:28:17;;;;;;;6.05;2.17;;;15.10;99.90;;;;;;5124358;27;20042;-62
2023/09/22 09:30:59;;;;;;;4.43;2.03;;;15.00;99.90;;;;;;5124796;27;20359;-63
2023/09/22 09:33:32;;;;;;;3.95;1.77;;;15.00;99.90;;;;;;5124419;27;20043;-62
2023/09/22 09:35:59;;;;;;;4.70;1.92;;;15.10;99.90;;;;;;5121882;27;20092;-62
2023/09/22 09:38:27;;;;;;;5.68;1.90;;;15.10;99.90;;;;;;5104896;27;20127;-64
2023/09/22 09:40:54;;;;;;;4.82;2.35;;;15.10;99.90;;;;;;5104225;27;20447;-63
2023/09/22 09:43:21;;;;;;;4.47;2.15;;;15.00;99.90;;;;;;5105868;27;20042;-63
2023/09/22 09:45:49;;;;;;;5.13;2.03;;;15.10;99.90;;;;;;5124128;27;20565;-64
2023/09/22 09:48:19;;;;;;;4.50;1.80;;;15.30;99.90;;;;;;5123749;27;20706;-62
2023/09/22 09:50:53;;;;;;;4.13;1.58;;;15.60;99.90;;;;;;5124022;27;20487;-63
2023/09/22 09:53:37;;;;;;;3.97;1.77;;;15.90;99.90;;;;;;5124319;27;20373;-63
2023/09/22 09:56:05;;;;;;;4.82;1.90;;;16.10;99.90;;;;;;5123990;27;20039;-63
2023/09/22 09:58:34;;;;;;;6.10;2.00;;;16.20;99.90;;;;;;5122881;27;20027;-61
2023/09/22 10:01:06;;;;;;;4.78;2.00;;;16.30;99.90;;;;;;5123699;27;20033;-62
2023/09/22 10:03:36;;;;;;;3.95;2.20;;;16.30;99.90;;;;;;5104781;27;20038;-62
2023/09/22 10:06:09;;;;;;;3.22;2.40;;;16.30;99.90;;;;;;5123851;27;20023;-60
2023/09/22 10:08:37;;;;;;;5.53;2.22;;;16.20;99.90;;;;;;5103434;28;20054;-62
2023/09/22 10:11:06;;;;;;;3.88;2.20;;;16.20;99.90;;;;;;5123699;28;20059;-62
2023/09/22 10:13:32;;;;;;;3.50;2.05;;;16.20;99.90;;;;;;5123428;28;20043;-62
2023/09/22 10:16:03;;;;;;;4.03;1.85;;;16.40;99.90;;;;;;5124351;28;20020;-60
2023/09/22 10:18:51;;;;;;;3.83;1.80;;;16.40;99.90;;;;;;5123797;28;20505;-61
2023/09/22 10:21:28;;;;;;;2.67;1.48;;;16.30;99.90;;;;;;5123575;28;20363;-63
2023/09/22 10:24:13;;;;;;;2.40;1.30;;;16.40;99.90;;;;;;5104581;28;20031;-61
2023/09/22 10:27:00;;;;;;;2.47;1.40;;;16.50;99.90;;;;;;5123676;27;20031;-61
2023/09/22 10:29:41;;;;;;;2.22;1.27;;;16.60;99.90;;;;;;5127514;27;20060;-63
2023/09/22 10:32:18;;;;;;;6.03;1.25;;;16.80;99.90;;;;;;5128035;27;20046;-61
2023/09/22 10:35:10;;;;;;;4.45;1.40;;;16.90;99.90;;;;;;5127773;27;20047;-62
2023/09/22 10:37:37;;;;;;;4.45;1.25;;;17.00;99.90;;;;;;5108417;27;20035;-61
2023/09/22 10:40:16;;;;;;;1.92;1.00;;;17.30;99.90;;;;;;5127997;27;20163;-62
2023/09/22 10:42:46;;;;;;;3.92;1.40;;;17.50;99.90;;;;;;5127618;27;20498;-62
2023/09/22 10:45:13;;;;;;;4.05;1.42;;;17.50;99.90;;;;;;5127035;27;20069;-61
2023/09/22 10:47:39;;;;;;;3.00;1.50;;;17.40;99.90;;;;;;5092112;27;20589;-63
2023/09/22 10:50:19;;;;;;;2.47;1.38;;;17.40;99.90;;;;;;5126637;27;20110;-60
2023/09/22 10:53:04;;;;;;;3.60;1.50;;;17.30;99.90;;;;;;5127475;27;20047;-62
2023/09/22 10:55:37;;;;;;;3.67;1.65;;;17.40;99.90;;;;;;5126925;27;22799;-63
2023/09/22 10:58:15;;;;;;;3.08;1.60;;;17.50;99.90;;;;;;5127189;27;20027;-64
2023/09/22 11:01:13;;;;;;;4.15;1.73;;;17.70;99.90;;;;;;5127976;27;20043;-61
2023/09/22 11:03:53;;;;;;;3.08;1.50;;;17.70;99.90;;;;;;5127415;27;20172;-61
2023/09/22 11:06:19;;;;;;;3.90;1.70;;;17.80;99.90;;;;;;5126369;27;20047;-62
2023/09/22 11:08:50;;;;;;;3.42;1.73;;;17.80;99.90;;;;;;5126670;27;20035;-62
2023/09/22 11:11:17;;;;;;;3.78;1.73;;;17.80;99.90;;;;;;5107371;27;20059;-62
2023/09/22 11:13:55;;;;;;;3.40;1.67;;;17.90;99.90;;;;;;5127562;27;20055;-63
2023/09/22 11:16:22;;;;;;;2.92;1.60;;;18.10;99.90;;;;;;5126339;27;20035;-62
2023/09/22 11:18:48;;;;;;;3.08;1.50;;;18.20;99.90;;;;;;5126358;27;20068;-63
2023/09/22 11:21:14;;;;;;;2.35;1.40;;;18.40;99.90;;;;;;5126892;27;20046;-63
2023/09/22 11:23:41;;;;;;;4.03;1.42;;;18.50;99.90;;;;;;5126736;27;20027;-61
2023/09/22 11:26:10;;;;;;;3.40;1.13;;;18.50;99.90;;;;;;5125799;27;20035;-62
2023/09/22 11:28:43;;;;;;;4.47;1.50;;;18.60;99.90;;;;;;5126562;27;20548;-62
2023/09/22 11:31:17;;;;;;;4.00;1.30;;;18.70;99.90;;;;;;5127242;27;20349;-60
2023/09/22 11:33:44;;;;;;;2.63;1.05;;;18.80;99.90;;;;;;5126201;27;20122;-62
2023/09/22 11:36:11;;;;;;;4.30;1.40;;;18.80;99.90;;;;;;5127012;27;20381;-62
2023/09/22 11:38:40;;;;;;;3.72;1.10;;;19.10;99.90;;;;;;5125848;27;20035;-62
2023/09/22 11:41:16;;;;;;;3.90;1.20;;;18.90;99.90;;;;;;5126924;27;20028;-62
2023/09/22 11:43:49;;;;;;;1.70;1.00;;;18.90;99.90;;;;;;5107729;27;20046;-63
2023/09/22 11:46:28;;;;;;;3.08;1.20;;;19.00;99.90;;;;;;5126739;27;20115;-62
2023/09/22 11:49:02;;;;;;;4.63;1.20;;;19.00;99.90;;;;;;5107952;27;20043;-62
2023/09/22 11:51:40;;;;;;;;;;;19.10;99.90;;;;;;5126881;27;20043;-62
2023/09/22 11:54:07;;;;;;;3.88;1.13;;;18.90;99.90;;;;;;5126815;27;19923;-64
2023/09/22 11:56:33;;;;;;;2.70;1.30;;;18.90;99.90;;;;;;5124660;27;20051;-63
2023/09/22 11:59:09;;;;;;;4.65;1.35;;;18.80;99.90;;;;;;5126361;27;20565;-62
2023/09/22 12:01:35;;;;;;;2.80;1.30;;;18.60;99.90;;;;;;5126285;27;20039;-61
2023/09/22 12:04:02;;;;;;;2.25;1.20;;;18.40;99.90;;;;;;5126088;27;20989;-61
2023/09/22 12:06:27;;;;;;;4.05;1.60;;;18.30;99.90;;;;;;5125465;27;20038;-62
2023/09/22 12:08:54;;;;;;;2.65;1.23;;;18.20;99.90;;;;;;5125332;27;20041;-61
2023/09/22 12:11:22;;;;;;;3.58;1.20;;;18.00;99.90;;;;;;5126131;27;20489;-62
2023/09/22 12:13:47;;;;;;;3.35;1.20;;;17.90;99.90;;;;;;5107468;27;20087;-60
2023/09/22 12:16:13;;;;;;;2.95;1.20;;;17.70;99.90;;;;;;5126442;27;20067;-64
2023/09/22 12:18:39;;;;;;;3.92;1.40;;;17.70;99.90;;;;;;5125295;27;20035;-60
2023/09/22 12:21:05;;;;;;;3.05;1.17;;;17.70;99.90;;;;;;5126027;27;20459;-63
2023/09/22 12:23:32;;;;;;;5.07;1.75;;;18.00;99.90;;;;;;5126112;27;20035;-62
2023/09/22 12:25:57;;;;;;;4.47;1.20;;;18.20;99.90;;;;;;5125487;27;20047;-61
2023/09/22 12:28:23;;;;;;;2.60;1.20;;;18.50;99.90;;;;;;5125737;27;20126;-61
2023/09/22 12:30:52;;;;;;;3.45;1.20;;;18.70;99.90;;;;;;5125247;27;20039;-62
2023/09/22 12:33:18;;;;;;;4.38;1.40;;;18.70;99.90;;;;;;5124725;27;20053;-61
2023/09/22 12:35:44;;;;;;;3.58;1.10;;;18.80;99.90;;;;;;5107005;27;20074;-63
2023/09/22 12:38:10;;;;;;;3.13;1.30;;;18.80;99.90;;;;;;5107522;27;20436;-63
2023/09/22 12:40:36;;;;;;;3.25;1.30;;;18.80;99.90;;;;;;5125393;27;20104;-64